Aérodrome :
LOGIN :

S'inscrire | Disclaimer

   EN    FR    IT 

 










Légende :    VFR   VFR Marginal   IFR   IFR Intensif   IFR Très Intensif
Visi : 
Plafond : 
>= 8 km
>= 3000ft
5 à 8 km
1000 à 3000 ft
1500m à 5 km
500 à 1000 ft
800 à 1500m
200 à 500 ft
< 800m
< 200 ft
Symboles :   Orages  Brouillard  Fortes neiges  Fortes précipitations  Vent > 20 kt
SIGMETs :   Divers  Orages  Givrage  Turbulence  Onde Orograph.  Cendres Volcan.







- Altitude de l'aérodrome : 46 ft
- Code IATA : SNN


EINN - Shannon

DERNIER METAR :
  • 251200Z 25021KT 9999 -SHRA FEW012 FEW018CB BKN026 11/05 Q1010 NOSIG

METARs EXPIRÉS :
  • 251130Z 24018KT 9999 FEW012 FEW018CB 08/05 Q1010 NOSIG
  • 251100Z 23023G38KT 8000 -SHRA FEW012 BKN018CB 09/05 Q1010 NOSIG
  • 251030Z 25021G38KT 9999 FEW012 SCT018CB 08/05 Q1010 RESHRAGS NOSIG
  • 251000Z 24019KT 9999 FEW012 FEW018CB BKN025 11/07 Q1010 NOSIG
  • 250930Z 24017KT 9999 FEW012 FEW018CB BKN025 11/07 Q1010 NOSIG

TAF TAF EINN
Valide du 25 à 12h jusqu'au 26 à 12h UTC


251100Z 2512/2612 25017KT 9999 FEW018 SCT025
TEMPO 2512/2515 26025G38KT 7000 -SHRA SCT012 SCT018CB BKN022
PROB40
TEMPO 2512/2514 5000 SHRA
TEMPO 2515/2521 26018G32KT -SHRA SCT012 SCT018CB
BECMG 2522/2601 26012KT
TEMPO 2607/2612 26015G25KT -SHRA SCT018CB
Pas de NOTAMs connus pour ce terrain.



MET'MAP, la Météo Aéronautique d'un coup d'oeil ! - Copyright ORBIFLY Décembre 2007 - Disclaimer

ORBIFLY MET'MAP TEAM :

Programmation & Développement : Alexandra Zaïnal
Conception & Développement : Baudouin d'Aumeries
Co-Programmation & Développement : Marc-Olivier Méhu
Soutien technique & logistique : Manuel Goepfert

Contact : metmap@orbifly.com




SOURCES & CREDITS :

   NOAA